createdAt,value
2023-02-26T00:01:45.996Z,68.43
2023-02-26T00:04:35.438Z,68.41
2023-02-26T00:07:29.323Z,68.39
2023-02-26T00:10:19.377Z,68.17
2023-02-26T00:13:10.720Z,68.35
2023-02-26T00:16:02.981Z,68.27
2023-02-26T00:18:52.154Z,68.11
2023-02-26T00:21:43.538Z,67.97
2023-02-26T00:24:32.261Z,68.15
2023-02-26T00:27:21.813Z,68.15
2023-02-26T00:30:13.615Z,68.08
2023-02-26T00:33:04.448Z,68.01
2023-02-26T00:36:00.565Z,67.82
2023-02-26T00:39:04.751Z,67.66
2023-02-26T00:41:54.016Z,67.67
2023-02-26T00:44:44.843Z,67.64
2023-02-26T00:47:43.845Z,67.58
2023-02-26T00:50:35.857Z,67.26
2023-02-26T00:53:30.105Z,67.23
2023-02-26T00:56:19.568Z,67.25
2023-02-26T00:59:08.156Z,67.46
2023-02-26T01:01:58.565Z,67.32
2023-02-26T01:04:49.846Z,67.42
2023-02-26T01:07:43.865Z,67.54
2023-02-26T01:10:34.911Z,67.16
2023-02-26T01:13:24.012Z,67.15
2023-02-26T01:16:21.839Z,66.99
2023-02-26T01:19:19.081Z,67.13
2023-02-26T01:22:18.067Z,66.98
2023-02-26T01:25:10.324Z,66.83
2023-02-26T01:28:00.301Z,66.80
2023-02-26T01:30:49.457Z,66.50
2023-02-26T01:33:46.088Z,66.57
2023-02-26T01:36:41.546Z,66.49
2023-02-26T01:39:40.888Z,66.38
2023-02-26T01:42:36.426Z,66.19
2023-02-26T01:45:33.026Z,66.12
2023-02-26T01:48:35.884Z,66.10
2023-02-26T01:51:49.341Z,66.11
2023-02-26T01:54:40.408Z,66.08
2023-02-26T01:57:29.146Z,66.11
2023-02-26T02:00:19.740Z,65.98
2023-02-26T02:03:08.713Z,65.90
2023-02-26T02:06:03.818Z,65.93
2023-02-26T02:08:53.209Z,65.95
2023-02-26T02:12:01.422Z,65.63
2023-02-26T02:15:01.381Z,65.65
2023-02-26T02:17:57.792Z,65.82
2023-02-26T02:21:09.783Z,65.61
2023-02-26T02:24:07.281Z,65.55
2023-02-26T02:27:18.083Z,65.38
2023-02-26T02:30:22.126Z,65.24
2023-02-26T02:33:17.125Z,65.32
2023-02-26T02:36:11.711Z,65.33
2023-02-26T02:39:09.272Z,65.16
2023-02-26T02:42:03.985Z,65.27
2023-02-26T02:44:59.440Z,65.33
2023-02-26T02:47:54.072Z,65.11
2023-02-26T02:50:49.105Z,65.10
2023-02-26T02:53:41.111Z,65.07
2023-02-26T02:56:37.335Z,65.00
2023-02-26T02:59:39.229Z,65.10
2023-02-26T03:02:35.954Z,64.73
2023-02-26T03:05:27.423Z,64.87
2023-02-26T03:08:21.428Z,64.69
2023-02-26T03:11:11.458Z,64.59
2023-02-26T03:14:01.221Z,64.71
2023-02-26T03:17:19.894Z,64.60
2023-02-26T03:20:18.486Z,64.75
2023-02-26T03:23:15.282Z,64.50
2023-02-26T03:26:14.059Z,64.54
2023-02-26T03:29:10.152Z,64.57
2023-02-26T03:32:03.559Z,64.43
2023-02-26T03:35:00.773Z,64.40
2023-02-26T03:37:52.110Z,64.39
2023-02-26T03:40:45.620Z,64.40
2023-02-26T03:43:43.814Z,64.27
2023-02-26T03:46:37.680Z,64.30
2023-02-26T03:49:31.242Z,64.18
2023-02-26T03:52:24.025Z,64.16
2023-02-26T03:55:27.533Z,64.15
2023-02-26T03:58:23.141Z,63.98
2023-02-26T04:01:30.544Z,64.13
2023-02-26T04:04:25.704Z,64.02
2023-02-26T04:07:17.250Z,64.04
2023-02-26T04:10:08.921Z,63.84
2023-02-26T04:13:01.543Z,63.88
2023-02-26T04:15:50.780Z,63.87
2023-02-26T04:18:41.171Z,63.86
2023-02-26T04:21:31.140Z,63.83
2023-02-26T04:24:19.809Z,63.76
2023-02-26T04:27:10.520Z,63.76
2023-02-26T04:29:59.181Z,63.65
2023-02-26T04:32:49.513Z,63.72
2023-02-26T04:35:40.059Z,63.70
2023-02-26T04:38:29.740Z,63.74
2023-02-26T04:41:18.456Z,63.84
2023-02-26T04:44:10.355Z,63.63
2023-02-26T04:47:02.686Z,63.61
2023-02-26T04:49:53.274Z,63.45
2023-02-26T04:52:43.264Z,63.63
2023-02-26T04:55:32.596Z,63.57
2023-02-26T04:58:21.262Z,63.48
2023-02-26T05:01:10.983Z,63.58
2023-02-26T05:03:59.680Z,63.60
2023-02-26T05:06:48.759Z,63.42
2023-02-26T05:09:38.743Z,63.56
2023-02-26T05:12:28.165Z,63.49
2023-02-26T05:15:16.870Z,63.41
2023-02-26T05:18:06.478Z,63.53
2023-02-26T05:20:56.252Z,63.24
2023-02-26T05:23:44.887Z,63.42
2023-02-26T05:26:35.689Z,63.36
2023-02-26T05:29:24.399Z,63.26
2023-02-26T05:32:15.032Z,63.13
2023-02-26T05:35:03.783Z,63.24
2023-02-26T05:37:52.917Z,63.37
2023-02-26T05:40:41.545Z,63.33
2023-02-26T05:43:34.555Z,63.22
2023-02-26T05:46:23.478Z,63.41
2023-02-26T05:49:13.008Z,63.40
2023-02-26T05:52:02.275Z,63.55
2023-02-26T05:54:51.296Z,63.43
2023-02-26T05:57:40.152Z,63.45
2023-02-26T06:00:31.371Z,63.44
2023-02-26T06:03:21.030Z,63.37
2023-02-26T06:06:09.970Z,63.29
2023-02-26T06:08:59.058Z,63.45
2023-02-26T06:11:47.666Z,63.30
2023-02-26T06:14:38.389Z,63.43
2023-02-26T06:17:28.630Z,63.35
2023-02-26T06:20:20.022Z,63.58
2023-02-26T06:23:08.685Z,63.60
2023-02-26T06:26:00.238Z,63.65
2023-02-26T06:28:48.853Z,63.94
2023-02-26T06:31:38.326Z,64.10
2023-02-26T06:34:29.438Z,64.26
2023-02-26T06:37:18.070Z,64.45
2023-02-26T06:40:11.139Z,64.67
2023-02-26T06:43:00.463Z,64.64
2023-02-26T06:45:50.110Z,64.79
2023-02-26T06:48:38.711Z,64.96
2023-02-26T06:51:31.319Z,65.01
2023-02-26T06:54:19.955Z,65.24
2023-02-26T06:57:09.545Z,65.19
2023-02-26T06:59:58.177Z,65.27
2023-02-26T07:02:46.815Z,65.40
2023-02-26T07:05:35.465Z,65.68
2023-02-26T07:08:25.539Z,65.50
2023-02-26T07:11:14.729Z,65.55
2023-02-26T07:14:03.932Z,65.66
2023-02-26T07:16:52.561Z,65.39
2023-02-26T07:19:41.222Z,65.63
2023-02-26T07:22:29.868Z,65.59
2023-02-26T07:25:20.409Z,65.22
2023-02-26T07:28:09.250Z,65.19
2023-02-26T07:30:59.346Z,65.15
2023-02-26T07:33:48.016Z,65.01
2023-02-26T07:36:37.397Z,65.24
2023-02-26T07:39:26.701Z,65.02
2023-02-26T07:42:16.730Z,64.97
2023-02-26T07:45:07.621Z,65.08
2023-02-26T07:47:56.254Z,64.98
2023-02-26T07:50:45.851Z,64.83
2023-02-26T07:53:35.096Z,64.72
2023-02-26T07:56:25.218Z,64.46
2023-02-26T07:59:16.814Z,64.54
2023-02-26T08:02:05.606Z,64.61
2023-02-26T08:04:55.605Z,64.18
2023-02-26T08:07:44.348Z,64.19
2023-02-26T08:10:33.407Z,63.89
2023-02-26T08:13:22.666Z,63.82
2023-02-26T08:16:12.622Z,63.61
2023-02-26T08:19:03.072Z,63.30
2023-02-26T08:21:51.669Z,63.41
2023-02-26T08:24:41.390Z,62.89
2023-02-26T08:27:29.983Z,62.76
2023-02-26T08:30:19.810Z,62.82
2023-02-26T08:33:09.817Z,62.79
2023-02-26T08:35:59.430Z,62.51
2023-02-26T08:38:48.041Z,62.38
2023-02-26T08:41:37.245Z,62.21
2023-02-26T08:44:25.860Z,61.96
2023-02-26T08:47:19.146Z,61.83
2023-02-26T08:50:14.966Z,61.56
2023-02-26T08:53:03.713Z,61.25
2023-02-26T08:55:55.020Z,61.15
2023-02-26T08:58:44.254Z,60.65
2023-02-26T09:01:32.971Z,60.83
2023-02-26T09:04:23.253Z,60.92
2023-02-26T09:07:13.639Z,60.86
2023-02-26T09:10:02.718Z,60.87
2023-02-26T09:12:51.874Z,60.65
2023-02-26T09:15:41.534Z,60.67
2023-02-26T09:18:32.334Z,60.76
2023-02-26T09:21:21.358Z,60.49
2023-02-26T09:24:11.376Z,60.34
2023-02-26T09:27:03.852Z,60.36
2023-02-26T09:29:52.768Z,60.32
2023-02-26T09:32:41.434Z,60.41
2023-02-26T09:35:31.388Z,60.34
2023-02-26T09:38:21.730Z,60.18
2023-02-26T09:41:22.754Z,60.17
2023-02-26T09:44:20.367Z,60.38
2023-02-26T09:47:18.758Z,60.02
2023-02-26T09:50:14.475Z,60.16
2023-02-26T09:53:12.072Z,60.10
2023-02-26T09:56:05.760Z,60.27
2023-02-26T09:58:56.613Z,60.15
2023-02-26T10:01:54.211Z,60.26
2023-02-26T10:04:53.421Z,60.25
2023-02-26T10:07:48.089Z,60.18
2023-02-26T10:10:56.239Z,60.32
2023-02-26T10:13:57.756Z,60.59
2023-02-26T10:16:53.038Z,60.20
2023-02-26T10:19:46.002Z,59.58
2023-02-26T10:22:42.444Z,58.86
2023-02-26T10:25:37.093Z,58.68
2023-02-26T10:28:36.609Z,58.58
2023-02-26T10:31:34.340Z,58.43
2023-02-26T10:34:32.808Z,57.84
2023-02-26T10:37:41.864Z,57.64
2023-02-26T10:40:35.402Z,56.81
2023-02-26T10:43:29.896Z,56.72
2023-02-26T10:46:28.504Z,56.30
2023-02-26T10:49:51.851Z,55.70
2023-02-26T10:52:44.235Z,55.05
2023-02-26T10:55:41.270Z,54.77
2023-02-26T10:58:30.536Z,55.02
2023-02-26T11:01:21.871Z,54.13
2023-02-26T11:04:15.411Z,53.78
2023-02-26T11:07:07.381Z,53.55
2023-02-26T11:09:57.374Z,53.23
2023-02-26T11:12:47.186Z,53.12
2023-02-26T11:15:37.687Z,53.12
2023-02-26T11:18:30.840Z,52.96
2023-02-26T11:21:24.583Z,53.37
2023-02-26T11:24:20.512Z,52.87
2023-02-26T11:27:14.150Z,52.35
2023-02-26T11:30:08.410Z,52.19
2023-02-26T11:33:00.174Z,52.11
2023-02-26T11:35:49.784Z,51.61
2023-02-26T11:38:38.915Z,51.30
2023-02-26T11:41:09.055Z,51.35
2023-02-26T11:43:44.995Z,51.34
2023-02-26T11:46:15.222Z,51.05
2023-02-26T11:48:47.681Z,50.57
2023-02-26T11:51:20.269Z,50.30
2023-02-26T11:53:52.664Z,49.78
2023-02-26T11:56:28.210Z,49.21
2023-02-26T11:58:57.304Z,49.17
2023-02-26T12:01:29.525Z,48.73
2023-02-26T12:04:02.199Z,48.40
2023-02-26T12:06:31.946Z,48.59
2023-02-26T12:09:01.064Z,48.74
2023-02-26T12:12:00.194Z,48.87
2023-02-26T12:14:50.193Z,49.02
2023-02-26T12:17:33.269Z,48.81
2023-02-26T12:20:15.380Z,49.34
2023-02-26T12:22:54.913Z,49.17
2023-02-26T12:25:52.475Z,48.86
2023-02-26T12:28:54.106Z,48.25
2023-02-26T12:31:48.547Z,48.19
2023-02-26T12:34:34.440Z,48.37
2023-02-26T12:37:17.823Z,48.53
2023-02-26T12:39:58.503Z,48.43
2023-02-26T12:42:42.354Z,48.17
2023-02-26T12:45:35.072Z,48.34
2023-02-26T12:48:22.740Z,48.35
2023-02-26T12:51:03.179Z,48.61
2023-02-26T12:53:51.183Z,48.37
2023-02-26T12:56:52.262Z,48.39
2023-02-26T12:59:38.022Z,48.47
2023-02-26T13:02:29.024Z,47.61
2023-02-26T13:18:55.562Z,48.13
2023-02-26T13:25:49.192Z,48.00
2023-02-26T13:28:44.609Z,48.50
2023-02-26T13:31:17.124Z,48.19
2023-02-26T13:33:47.871Z,47.24
2023-02-26T13:36:17.561Z,47.04
2023-02-26T13:38:57.863Z,46.74
2023-02-26T13:41:35.950Z,46.66
2023-02-26T13:44:18.944Z,46.69
2023-02-26T13:50:46.949Z,45.25
2023-02-26T13:53:52.224Z,45.03
2023-02-26T13:56:48.868Z,45.13
2023-02-26T13:59:56.531Z,45.33
2023-02-26T14:02:51.074Z,45.56
2023-02-26T14:05:51.930Z,46.15
2023-02-26T14:08:44.345Z,46.19
2023-02-26T14:11:40.569Z,46.33
2023-02-26T14:14:25.545Z,45.66
2023-02-26T14:17:31.912Z,45.43
2023-02-26T14:20:23.899Z,45.18
2023-02-26T14:23:00.974Z,44.76
2023-02-26T14:25:35.972Z,44.43
2023-02-26T14:28:41.775Z,44.08
2023-02-26T14:31:18.052Z,43.61
2023-02-26T14:34:00.016Z,43.62
2023-02-26T14:36:36.364Z,43.25
2023-02-26T14:39:09.564Z,42.71
2023-02-26T14:41:41.385Z,42.37
2023-02-26T14:44:17.412Z,42.04
2023-02-26T14:46:46.807Z,42.15
2023-02-26T14:49:22.175Z,41.75
2023-02-26T14:52:04.707Z,41.53
2023-02-26T14:54:49.699Z,41.70
2023-02-26T14:57:27.067Z,41.59
2023-02-26T15:00:19.331Z,41.65
2023-02-26T15:03:09.907Z,41.82
2023-02-26T15:05:53.997Z,41.70
2023-02-26T15:08:50.169Z,41.32
2023-02-26T15:11:39.395Z,41.15
2023-02-26T15:14:42.833Z,40.95
2023-02-26T15:17:24.740Z,41.10
2023-02-26T15:20:05.572Z,40.94
2023-02-26T15:22:50.599Z,41.07
2023-02-26T15:25:28.914Z,41.36
2023-02-26T15:27:58.845Z,41.61
2023-02-26T15:30:28.593Z,41.92
2023-02-26T15:32:58.548Z,42.40
2023-02-26T15:35:30.944Z,42.78
2023-02-26T15:38:02.750Z,42.96
2023-02-26T15:40:35.345Z,42.52
2023-02-26T15:43:06.127Z,42.94
2023-02-26T15:45:38.252Z,43.19
2023-02-26T15:48:09.689Z,43.72
2023-02-26T15:50:42.167Z,44.00
2023-02-26T15:53:19.354Z,44.00
2023-02-26T15:55:50.700Z,44.10
2023-02-26T15:58:24.883Z,44.43
2023-02-26T16:00:55.068Z,44.34
2023-02-26T16:03:27.584Z,44.59
2023-02-26T16:05:56.843Z,44.73
2023-02-26T16:08:27.632Z,45.01
2023-02-26T16:10:58.965Z,45.19
2023-02-26T16:13:31.871Z,45.36
2023-02-26T16:16:04.582Z,45.72
2023-02-26T16:18:35.004Z,46.14
2023-02-26T16:21:07.207Z,46.58
2023-02-26T16:23:45.175Z,46.87
2023-02-26T16:26:18.223Z,47.08
2023-02-26T16:28:48.908Z,47.34
2023-02-26T16:31:21.353Z,47.43
2023-02-26T16:33:58.688Z,47.54
2023-02-26T16:36:31.115Z,47.78
2023-02-26T16:39:10.052Z,48.07
2023-02-26T16:41:41.412Z,48.22
2023-02-26T16:44:40.483Z,48.42
2023-02-26T16:47:11.481Z,48.69
2023-02-26T16:49:42.609Z,49.07
2023-02-26T16:52:17.889Z,49.43
2023-02-26T16:54:57.114Z,49.53
2023-02-26T16:57:29.556Z,50.01
2023-02-26T17:00:03.933Z,50.36
2023-02-26T17:02:36.200Z,50.76
2023-02-26T17:05:15.858Z,51.05
2023-02-26T17:07:49.818Z,51.43
2023-02-26T17:10:25.583Z,51.51
2023-02-26T17:13:03.094Z,51.90
2023-02-26T17:15:36.197Z,51.90
2023-02-26T17:18:04.816Z,52.21
2023-02-26T17:20:35.121Z,52.61
2023-02-26T17:23:09.238Z,52.82
2023-02-26T17:25:43.875Z,52.84
2023-02-26T17:28:16.957Z,53.28
2023-02-26T17:30:46.277Z,53.42
2023-02-26T17:33:15.348Z,53.48
2023-02-26T17:35:44.802Z,53.74
2023-02-26T17:38:15.207Z,53.91
2023-02-26T17:40:47.989Z,54.12
2023-02-26T17:43:16.756Z,54.49
2023-02-26T17:45:45.636Z,54.49
2023-02-26T17:48:16.372Z,54.84
2023-02-26T17:50:48.104Z,55.04
2023-02-26T17:53:21.294Z,55.16
2023-02-26T17:55:53.414Z,55.77
2023-02-26T17:58:28.991Z,55.76
2023-02-26T18:00:57.429Z,55.78
2023-02-26T18:03:26.524Z,55.79
2023-02-26T18:05:56.537Z,55.93
2023-02-26T18:08:27.689Z,55.98
2023-02-26T18:10:58.449Z,56.39
2023-02-26T18:13:28.551Z,56.81
2023-02-26T18:15:59.251Z,56.82
2023-02-26T18:18:28.233Z,56.88
2023-02-26T18:20:57.606Z,57.09
2023-02-26T18:23:26.382Z,57.03
2023-02-26T18:25:57.459Z,57.30
2023-02-26T18:28:28.750Z,57.21
2023-02-26T18:30:58.958Z,57.50
2023-02-26T18:33:27.610Z,57.68
2023-02-26T18:35:58.866Z,57.63
2023-02-26T18:38:29.140Z,57.64
2023-02-26T18:41:01.905Z,57.71
2023-02-26T18:43:31.016Z,57.80
2023-02-26T18:46:01.969Z,57.77
2023-02-26T18:48:31.240Z,57.73
2023-02-26T18:50:59.863Z,57.90
2023-02-26T18:53:29.047Z,57.77
2023-02-26T18:55:58.819Z,57.82
2023-02-26T18:58:27.731Z,58.04
2023-02-26T19:00:56.792Z,58.02
2023-02-26T19:03:25.835Z,57.98
2023-02-26T19:05:59.093Z,57.72
2023-02-26T19:08:27.889Z,58.10
2023-02-26T19:10:56.366Z,58.17
2023-02-26T19:13:27.098Z,58.13
2023-02-26T19:15:56.190Z,58.25
2023-02-26T19:18:25.144Z,57.94
2023-02-26T19:20:53.562Z,58.05
2023-02-26T19:23:21.894Z,58.32
2023-02-26T19:25:52.103Z,58.17
2023-02-26T19:28:20.583Z,58.10
2023-02-26T19:30:50.576Z,58.13
2023-02-26T19:33:20.357Z,58.05
2023-02-26T19:35:48.923Z,58.08
2023-02-26T19:38:17.812Z,58.12
2023-02-26T19:40:46.492Z,58.21
2023-02-26T19:43:15.458Z,58.03
2023-02-26T19:45:43.875Z,58.39
2023-02-26T19:48:13.563Z,58.31
2023-02-26T19:50:41.966Z,58.30
2023-02-26T19:53:10.372Z,58.07
2023-02-26T19:55:39.789Z,58.04
2023-02-26T19:58:08.378Z,58.12
2023-02-26T20:00:37.716Z,58.35
2023-02-26T20:03:06.092Z,58.09
2023-02-26T20:05:37.854Z,58.15
2023-02-26T20:08:06.723Z,58.22
2023-02-26T20:10:35.474Z,58.11
2023-02-26T20:13:03.795Z,58.31
2023-02-26T20:15:33.654Z,58.33
2023-02-26T20:18:02.041Z,58.30
2023-02-26T20:20:30.866Z,58.16
2023-02-26T20:23:00.826Z,58.02
2023-02-26T20:25:30.658Z,58.01
2023-02-26T20:27:58.987Z,57.98
2023-02-26T20:30:28.158Z,57.84
2023-02-26T20:32:56.791Z,57.71
2023-02-26T20:35:25.789Z,57.78
2023-02-26T20:37:54.164Z,57.73
2023-02-26T20:40:24.496Z,57.80
2023-02-26T20:42:53.797Z,57.67
2023-02-26T20:45:22.242Z,57.60
2023-02-26T20:47:51.411Z,57.72
2023-02-26T20:50:20.956Z,57.67
2023-02-26T20:52:49.358Z,57.71
2023-02-26T20:55:20.506Z,57.69
2023-02-26T20:57:51.025Z,57.68
2023-02-26T21:00:20.435Z,57.64
2023-02-26T21:02:49.079Z,57.70
2023-02-26T21:05:18.457Z,57.44
2023-02-26T21:07:47.284Z,57.42
2023-02-26T21:10:18.270Z,57.52
2023-02-26T21:12:47.710Z,57.56
2023-02-26T21:15:18.404Z,57.58
2023-02-26T21:17:46.905Z,57.55
2023-02-26T21:20:18.330Z,57.62
2023-02-26T21:22:47.373Z,57.61
2023-02-26T21:25:16.781Z,57.56
2023-02-26T21:27:45.369Z,57.50
2023-02-26T21:30:14.733Z,57.61
2023-02-26T21:32:44.763Z,57.61
2023-02-26T21:35:16.423Z,57.78
2023-02-26T21:37:45.390Z,57.88
2023-02-26T21:40:16.214Z,57.81
2023-02-26T21:42:46.557Z,57.46
2023-02-26T21:45:14.965Z,57.63
2023-02-26T21:47:45.562Z,57.70
2023-02-26T21:50:13.897Z,57.73
2023-02-26T21:52:43.154Z,58.07
2023-02-26T21:55:12.460Z,57.80
2023-02-26T21:57:41.599Z,57.84
2023-02-26T22:00:12.119Z,58.00
2023-02-26T22:02:42.822Z,58.09
2023-02-26T22:05:15.200Z,58.00
2023-02-26T22:07:44.456Z,57.95
2023-02-26T22:10:14.746Z,57.88
2023-02-26T22:12:43.104Z,57.91
2023-02-26T22:15:12.258Z,57.91
2023-02-26T22:17:40.615Z,57.99
2023-02-26T22:20:14.372Z,58.09
2023-02-26T22:22:44.545Z,58.02
2023-02-26T22:25:14.388Z,58.21
2023-02-26T22:27:43.204Z,58.44
2023-02-26T22:30:13.359Z,58.20
2023-02-26T22:32:43.762Z,58.44
2023-02-26T22:35:14.451Z,58.54
2023-02-26T22:37:44.657Z,58.45
2023-02-26T22:40:14.499Z,58.51
2023-02-26T22:42:45.186Z,58.61
2023-02-26T22:45:17.088Z,58.52
2023-02-26T22:47:47.936Z,58.58
2023-02-26T22:50:17.004Z,58.51
2023-02-26T22:52:47.860Z,58.60
2023-02-26T22:55:16.411Z,58.60
2023-02-26T22:57:44.823Z,58.47
2023-02-26T23:00:18.656Z,58.40
2023-02-26T23:02:48.628Z,58.65
2023-02-26T23:05:19.439Z,58.39
2023-02-26T23:07:50.567Z,58.22
2023-02-26T23:10:20.692Z,58.51
2023-02-26T23:12:49.822Z,58.51
2023-02-26T23:15:22.083Z,58.43
2023-02-26T23:17:51.612Z,58.58
2023-02-26T23:20:19.968Z,58.75
2023-02-26T23:22:50.419Z,58.59
2023-02-26T23:25:18.733Z,58.53
2023-02-26T23:27:48.729Z,58.40
2023-02-26T23:30:17.250Z,58.56
2023-02-26T23:32:46.082Z,58.53
2023-02-26T23:35:15.876Z,58.59
2023-02-26T23:37:44.212Z,58.68
2023-02-26T23:40:15.826Z,58.54
2023-02-26T23:42:44.621Z,58.67
2023-02-26T23:45:14.078Z,58.63
2023-02-26T23:47:43.511Z,58.70
2023-02-26T23:50:13.035Z,58.80
2023-02-26T23:52:41.819Z,58.69
2023-02-26T23:55:12.166Z,58.86
2023-02-26T23:57:42.919Z,58.72
